createdAt,value
2019-03-29T07:00:37.092Z,7.42
2019-03-29T07:01:37.051Z,7.44
2019-03-29T07:02:37.033Z,7.47
2019-03-29T07:03:37.051Z,7.63
2019-03-29T07:04:37.019Z,7.56
2019-03-29T07:05:37.003Z,7.58
2019-03-29T07:06:37.019Z,7.67
2019-03-29T07:07:36.983Z,7.62
2019-03-29T07:08:36.989Z,7.69
2019-03-29T07:09:36.971Z,7.74
2019-03-29T07:10:36.971Z,7.69
2019-03-29T07:11:39.672Z,7.63
2019-03-29T07:12:36.942Z,7.75
2019-03-29T07:13:36.946Z,7.82
2019-03-29T07:14:36.908Z,7.85
2019-03-29T07:15:36.897Z,7.89
2019-03-29T07:16:36.913Z,7.85
2019-03-29T07:17:36.881Z,7.96
2019-03-29T07:18:36.871Z,8.03
2019-03-29T07:19:36.872Z,8.12
2019-03-29T07:20:36.879Z,8.17
2019-03-29T07:21:36.829Z,8.22
2019-03-29T07:22:36.847Z,8.22
2019-03-29T07:23:36.813Z,8.17
2019-03-29T07:24:36.808Z,8.37
2019-03-29T07:25:36.919Z,8.39
2019-03-29T07:26:36.777Z,8.45
2019-03-29T07:27:44.945Z,8.44
2019-03-29T07:28:37.758Z,8.57
2019-03-29T07:29:36.763Z,8.55
2019-03-29T07:30:36.762Z,8.60
2019-03-29T07:31:36.726Z,8.72
2019-03-29T07:32:36.739Z,8.76
2019-03-29T07:33:36.710Z,8.72
2019-03-29T07:34:36.721Z,8.79
2019-03-29T07:35:36.682Z,8.79
2019-03-29T07:36:36.697Z,8.81
2019-03-29T07:37:36.678Z,8.83
2019-03-29T07:38:36.651Z,8.79
2019-03-29T07:39:36.660Z,8.94
2019-03-29T07:40:36.624Z,8.94
2019-03-29T07:41:36.621Z,9.02
2019-03-29T07:42:36.607Z,8.94
2019-03-29T07:43:36.626Z,9.06
2019-03-29T07:44:36.591Z,9.06
2019-03-29T07:45:36.588Z,9.16
2019-03-29T07:46:36.560Z,9.12
2019-03-29T07:47:36.552Z,9.16
2019-03-29T07:48:36.575Z,9.23
2019-03-29T07:49:36.536Z,9.32
2019-03-29T07:50:36.518Z,9.40
2019-03-29T07:51:36.521Z,9.42
2019-03-29T07:52:36.500Z,9.52
2019-03-29T07:53:36.525Z,9.53
2019-03-29T07:54:36.480Z,9.50
2019-03-29T07:55:37.409Z,9.53
2019-03-29T07:56:36.522Z,9.63
2019-03-29T07:57:36.461Z,9.68
2019-03-29T07:58:36.433Z,9.70
2019-03-29T07:59:36.443Z,9.76
2019-03-29T08:00:36.462Z,9.78
2019-03-29T08:01:36.407Z,9.85
2019-03-29T08:02:36.410Z,9.89
2019-03-29T08:03:36.408Z,9.99
2019-03-29T08:04:36.399Z,9.96
2019-03-29T08:05:36.385Z,10.10
2019-03-29T08:06:36.382Z,10.09
2019-03-29T08:07:36.375Z,10.07
2019-03-29T08:08:36.331Z,10.10
2019-03-29T08:09:36.320Z,10.17
2019-03-29T08:10:36.390Z,10.30
2019-03-29T08:11:46.126Z,10.33
2019-03-29T08:12:40.423Z,10.34
2019-03-29T08:13:36.325Z,10.43
2019-03-29T08:14:36.279Z,10.46
2019-03-29T08:15:36.265Z,10.52
2019-03-29T08:16:36.286Z,10.52
2019-03-29T08:17:36.237Z,10.55
2019-03-29T08:18:36.235Z,10.53
2019-03-29T08:19:37.285Z,10.58
2019-03-29T08:20:42.011Z,10.65
2019-03-29T08:21:37.233Z,10.59
2019-03-29T08:22:36.202Z,10.76
2019-03-29T08:23:36.174Z,10.77
2019-03-29T08:24:36.170Z,10.74
2019-03-29T08:25:36.153Z,10.78
2019-03-29T08:26:36.181Z,10.74
2019-03-29T08:27:36.169Z,10.84
2019-03-29T08:28:36.128Z,10.95
2019-03-29T08:29:36.108Z,10.98
2019-03-29T08:30:36.103Z,11.07
2019-03-29T08:31:36.102Z,11.16
2019-03-29T08:32:36.167Z,11.13
2019-03-29T08:33:36.062Z,11.11
2019-03-29T08:34:36.241Z,11.24
2019-03-29T08:35:36.087Z,11.17
2019-03-29T08:36:36.048Z,11.16
2019-03-29T08:37:36.086Z,11.19
2019-03-29T08:38:36.014Z,11.21
2019-03-29T08:39:36.013Z,11.29
2019-03-29T08:40:36.039Z,11.35
2019-03-29T08:41:35.987Z,11.41
2019-03-29T08:42:35.984Z,11.49
2019-03-29T08:43:35.978Z,11.50
2019-03-29T08:44:35.945Z,11.57
2019-03-29T08:45:35.994Z,11.62
2019-03-29T08:46:35.930Z,11.71
2019-03-29T08:47:35.956Z,11.83
2019-03-29T08:48:35.928Z,11.85
2019-03-29T08:49:35.926Z,11.90
2019-03-29T08:50:35.920Z,11.89
2019-03-29T08:51:35.877Z,12.02
2019-03-29T08:52:35.869Z,12.12
2019-03-29T08:53:35.926Z,11.99
2019-03-29T08:54:35.846Z,12.11
2019-03-29T08:55:45.537Z,12.16
2019-03-29T08:56:36.825Z,12.19
2019-03-29T08:57:35.845Z,12.15
2019-03-29T08:58:35.829Z,12.27
2019-03-29T08:59:35.827Z,12.31
2019-03-29T09:00:35.901Z,12.33
2019-03-29T09:01:35.789Z,12.37
2019-03-29T09:02:35.791Z,12.37
2019-03-29T09:03:35.857Z,12.45
2019-03-29T09:04:35.753Z,12.41
2019-03-29T09:05:39.050Z,12.54
2019-03-29T09:06:35.716Z,12.57
2019-03-29T09:07:44.497Z,12.67
2019-03-29T09:08:36.694Z,12.66
2019-03-29T09:09:35.698Z,12.67
2019-03-29T09:10:35.788Z,12.71
2019-03-29T09:11:38.783Z,12.78
2019-03-29T09:12:35.658Z,12.82
2019-03-29T09:13:35.639Z,12.88
2019-03-29T09:14:35.631Z,12.88
2019-03-29T09:15:35.674Z,12.95
2019-03-29T09:16:35.617Z,12.96
2019-03-29T09:17:35.596Z,13.03
2019-03-29T09:18:35.593Z,13.11
2019-03-29T09:19:35.574Z,13.09
2019-03-29T09:20:35.613Z,13.21
2019-03-29T09:21:35.553Z,13.24
2019-03-29T09:22:35.571Z,13.43
2019-03-29T09:23:35.544Z,13.43
2019-03-29T09:24:35.542Z,13.49
2019-03-29T09:25:35.541Z,13.56
2019-03-29T09:26:35.524Z,13.71
2019-03-29T09:27:35.489Z,13.76
2019-03-29T09:28:35.507Z,13.84
2019-03-29T09:29:35.468Z,13.99
2019-03-29T09:30:35.510Z,14.12
2019-03-29T09:31:35.473Z,14.19
2019-03-29T09:32:35.430Z,14.31
2019-03-29T09:33:35.461Z,14.31
2019-03-29T09:34:35.450Z,14.44
2019-03-29T09:35:35.423Z,14.57
2019-03-29T09:36:35.435Z,14.62
2019-03-29T09:37:35.398Z,14.71
2019-03-29T09:38:35.373Z,14.75
2019-03-29T09:39:35.383Z,14.88
2019-03-29T09:40:35.354Z,14.98
2019-03-29T09:41:35.381Z,15.08
2019-03-29T09:42:35.331Z,15.13
2019-03-29T09:43:35.347Z,15.27
2019-03-29T09:44:35.306Z,15.46
2019-03-29T09:45:35.334Z,15.56
2019-03-29T09:46:35.319Z,15.75
2019-03-29T09:47:40.123Z,15.86
2019-03-29T09:48:36.277Z,16.04
2019-03-29T09:49:35.257Z,16.16
2019-03-29T09:50:35.242Z,16.59
2019-03-29T09:51:36.171Z,16.96
2019-03-29T09:52:35.224Z,17.50
2019-03-29T09:53:35.299Z,17.95
2019-03-29T09:54:35.201Z,18.65
2019-03-29T09:55:35.192Z,19.33
2019-03-29T09:56:39.183Z,19.75
2019-03-29T09:57:37.674Z,20.27
2019-03-29T09:58:35.194Z,21.01
2019-03-29T09:59:35.156Z,21.71
2019-03-29T10:00:35.141Z,22.54
2019-03-29T10:01:35.239Z,23.08
2019-03-29T10:02:35.127Z,23.53
2019-03-29T10:03:35.149Z,23.72
2019-03-29T10:04:35.122Z,24.17
2019-03-29T10:05:35.089Z,24.14
2019-03-29T10:06:35.111Z,24.34
2019-03-29T10:07:35.096Z,24.60
2019-03-29T10:08:35.082Z,25.01
2019-03-29T10:09:35.047Z,25.20
2019-03-29T10:10:35.044Z,25.80
2019-03-29T10:11:35.083Z,26.37
2019-03-29T10:12:43.237Z,26.94
2019-03-29T10:13:36.016Z,27.77
2019-03-29T10:14:35.003Z,28.25
2019-03-29T10:15:35.039Z,28.80
2019-03-29T10:16:34.982Z,29.19
2019-03-29T10:17:34.997Z,28.84
2019-03-29T10:18:34.966Z,28.59
2019-03-29T10:19:34.987Z,27.76
2019-03-29T10:20:34.951Z,27.85
2019-03-29T10:21:34.970Z,28.07
2019-03-29T10:22:34.918Z,28.41
2019-03-29T10:23:34.911Z,28.44
2019-03-29T10:24:34.907Z,28.75
2019-03-29T10:25:34.899Z,29.06
2019-03-29T10:26:34.945Z,29.18
2019-03-29T10:27:34.873Z,29.04
2019-03-29T10:28:34.857Z,29.06
2019-03-29T10:29:34.851Z,29.49
2019-03-29T10:30:34.844Z,29.87
2019-03-29T10:31:34.849Z,30.27
2019-03-29T10:32:34.848Z,30.74
2019-03-29T10:33:34.817Z,31.13
2019-03-29T10:34:37.409Z,31.31
2019-03-29T10:35:34.822Z,30.72
2019-03-29T10:36:34.790Z,29.93
2019-03-29T10:37:34.783Z,29.44
2019-03-29T10:38:34.793Z,29.19
2019-03-29T10:39:35.831Z,28.88
2019-03-29T10:40:34.751Z,28.80
2019-03-29T10:41:37.979Z,28.68
2019-03-29T10:42:34.728Z,28.46
2019-03-29T10:43:34.746Z,28.58
2019-03-29T10:44:34.717Z,28.41
2019-03-29T10:45:39.815Z,28.59
2019-03-29T10:46:35.691Z,28.40
2019-03-29T10:47:43.815Z,27.96
2019-03-29T10:48:35.667Z,27.67
2019-03-29T10:49:34.681Z,27.24
2019-03-29T10:50:34.649Z,26.54
2019-03-29T10:51:34.639Z,26.40
2019-03-29T10:52:34.639Z,26.47
2019-03-29T10:53:34.622Z,26.92
2019-03-29T10:54:34.630Z,27.23
2019-03-29T10:55:34.618Z,27.69
2019-03-29T10:56:34.820Z,27.99
2019-03-29T10:57:34.611Z,27.71
2019-03-29T10:58:34.570Z,27.53
2019-03-29T10:59:34.621Z,27.66
2019-03-29T11:00:34.579Z,27.94
2019-03-29T11:01:34.544Z,27.61
2019-03-29T11:02:34.586Z,27.70
2019-03-29T11:03:34.532Z,27.26
2019-03-29T11:04:34.749Z,27.35
2019-03-29T11:05:34.510Z,26.87
2019-03-29T11:06:34.494Z,27.20
2019-03-29T11:07:34.510Z,27.57
2019-03-29T11:08:34.470Z,26.35
2019-03-29T11:09:37.043Z,26.55
2019-03-29T11:10:34.462Z,26.57
2019-03-29T11:11:34.442Z,26.20
2019-03-29T11:12:34.473Z,26.01
2019-03-29T11:13:34.436Z,25.90
2019-03-29T11:14:34.411Z,25.87
2019-03-29T11:15:34.410Z,26.15
2019-03-29T11:16:34.389Z,26.44
2019-03-29T11:17:34.411Z,26.36
2019-03-29T11:18:34.370Z,25.91
2019-03-29T11:19:34.363Z,25.91
2019-03-29T11:20:34.355Z,25.84
2019-03-29T11:21:34.342Z,25.47
2019-03-29T11:22:34.366Z,26.01
2019-03-29T11:23:34.365Z,26.94
2019-03-29T11:24:34.348Z,28.23
2019-03-29T11:25:34.350Z,29.22
2019-03-29T11:26:34.301Z,30.27
2019-03-29T11:27:34.330Z,31.20
2019-03-29T11:28:34.294Z,31.99
2019-03-29T11:29:34.304Z,32.77
2019-03-29T11:30:41.973Z,33.36
2019-03-29T11:31:35.289Z,33.67
2019-03-29T11:32:34.234Z,33.82
2019-03-29T11:33:34.232Z,34.19
2019-03-29T11:34:34.245Z,34.34
2019-03-29T11:35:34.233Z,34.44
2019-03-29T11:36:34.198Z,34.09
2019-03-29T11:37:34.190Z,32.03
2019-03-29T11:38:34.243Z,30.76
2019-03-29T11:39:34.170Z,31.26
2019-03-29T11:40:34.159Z,31.48
2019-03-29T11:41:34.152Z,31.84
2019-03-29T11:42:34.195Z,32.17
2019-03-29T11:43:34.128Z,32.30
2019-03-29T11:44:34.157Z,32.36
2019-03-29T11:45:34.108Z,32.71
2019-03-29T11:46:34.154Z,32.86
2019-03-29T11:47:34.096Z,32.35
2019-03-29T11:48:34.086Z,32.00
2019-03-29T11:49:34.177Z,31.42
2019-03-29T11:50:34.057Z,31.31
2019-03-29T11:51:34.047Z,31.31
2019-03-29T11:52:34.050Z,30.36
2019-03-29T11:53:34.054Z,29.87
2019-03-29T11:54:34.050Z,30.93
2019-03-29T11:55:34.051Z,31.21
2019-03-29T11:56:34.003Z,31.23
2019-03-29T11:57:33.999Z,30.81
2019-03-29T11:58:33.987Z,30.19
2019-03-29T11:59:34.006Z,29.29
2019-03-29T12:00:33.972Z,28.81
2019-03-29T12:01:34.028Z,28.29
2019-03-29T12:02:33.945Z,28.09
2019-03-29T12:03:33.984Z,27.73
2019-03-29T12:04:33.937Z,27.31
2019-03-29T12:05:36.246Z,27.28
2019-03-29T12:06:33.970Z,27.24
2019-03-29T12:07:33.956Z,27.26
2019-03-29T12:08:33.894Z,27.31
2019-03-29T12:09:33.885Z,27.53
2019-03-29T12:10:33.878Z,27.35
2019-03-29T12:11:33.906Z,27.21
2019-03-29T12:12:33.852Z,27.09
2019-03-29T12:13:40.909Z,26.58
2019-03-29T12:14:34.828Z,26.18
2019-03-29T12:15:33.833Z,25.82
2019-03-29T12:16:33.814Z,25.37
2019-03-29T12:17:33.886Z,24.85
2019-03-29T12:18:33.797Z,24.68
2019-03-29T12:19:33.802Z,25.02
2019-03-29T12:20:33.820Z,25.27
2019-03-29T12:21:33.761Z,25.50
2019-03-29T12:22:33.778Z,25.82
2019-03-29T12:23:33.738Z,26.29
2019-03-29T12:24:33.745Z,26.62
2019-03-29T12:25:33.742Z,27.10
2019-03-29T12:26:33.714Z,27.53
2019-03-29T12:27:33.749Z,27.69
2019-03-29T12:28:33.684Z,27.57
2019-03-29T12:29:33.678Z,27.11
2019-03-29T12:30:33.714Z,27.05
2019-03-29T12:31:33.689Z,27.29
2019-03-29T12:32:33.678Z,27.17
2019-03-29T12:33:33.659Z,26.81
2019-03-29T12:34:33.625Z,27.02
2019-03-29T12:35:33.615Z,26.95
2019-03-29T12:36:33.615Z,26.87
2019-03-29T12:37:33.599Z,27.09
2019-03-29T12:38:33.621Z,26.81
2019-03-29T12:39:33.573Z,26.79
2019-03-29T12:40:33.618Z,26.76
2019-03-29T12:41:33.574Z,26.01
2019-03-29T12:42:33.558Z,25.47
2019-03-29T12:43:35.116Z,25.75
2019-03-29T12:44:33.594Z,26.37
2019-03-29T12:45:33.516Z,27.10
2019-03-29T12:46:33.614Z,27.41
2019-03-29T12:47:33.491Z,27.95
2019-03-29T12:48:33.538Z,27.32
2019-03-29T12:49:33.513Z,26.86
2019-03-29T12:50:33.483Z,27.95
2019-03-29T12:51:33.466Z,28.29
2019-03-29T12:52:34.061Z,28.75
2019-03-29T12:53:33.438Z,28.88
2019-03-29T12:54:33.465Z,28.51
2019-03-29T12:55:33.457Z,28.41
2019-03-29T12:56:33.407Z,28.03
2019-03-29T12:57:33.478Z,27.82
2019-03-29T12:58:33.386Z,27.62
2019-03-29T12:59:33.462Z,27.59
2019-03-29T13:00:33.428Z,27.53
2019-03-29T13:01:39.182Z,27.85
2019-03-29T13:02:34.832Z,28.01
2019-03-29T13:03:33.339Z,27.53
2019-03-29T13:04:33.331Z,26.92
2019-03-29T13:05:33.365Z,26.12
2019-03-29T13:06:33.345Z,25.56
2019-03-29T13:07:33.318Z,25.07
2019-03-29T13:08:33.353Z,24.83
2019-03-29T13:09:33.286Z,24.67
2019-03-29T13:10:33.282Z,24.60
2019-03-29T13:11:33.340Z,24.42
2019-03-29T13:12:33.268Z,24.24
2019-03-29T13:13:33.267Z,23.89
2019-03-29T13:14:33.255Z,23.90
2019-03-29T13:15:33.224Z,24.35
2019-03-29T13:16:33.210Z,24.69
2019-03-29T13:17:34.387Z,24.91
2019-03-29T13:18:33.241Z,25.24
2019-03-29T13:19:33.324Z,25.15
2019-03-29T13:20:33.184Z,24.91
2019-03-29T13:21:33.199Z,24.87
2019-03-29T13:22:34.716Z,25.20
2019-03-29T13:23:33.215Z,25.65
2019-03-29T13:24:33.150Z,26.46
2019-03-29T13:25:33.150Z,26.31
2019-03-29T13:26:33.204Z,26.62
2019-03-29T13:27:33.112Z,26.58
2019-03-29T13:28:33.230Z,26.40
2019-03-29T13:29:33.161Z,26.27
2019-03-29T13:30:33.087Z,26.15
2019-03-29T13:31:33.061Z,26.08
2019-03-29T13:32:33.472Z,25.93
2019-03-29T13:33:33.071Z,25.30
2019-03-29T13:34:33.061Z,24.64
2019-03-29T13:35:33.019Z,24.13
2019-03-29T13:36:33.004Z,24.04
2019-03-29T13:37:33.033Z,24.23
2019-03-29T13:38:33.005Z,24.19
2019-03-29T13:39:33.007Z,24.27
2019-03-29T13:40:32.995Z,24.37
2019-03-29T13:41:32.958Z,24.44
2019-03-29T13:42:32.976Z,24.71
2019-03-29T13:43:32.943Z,24.82
2019-03-29T13:44:33.034Z,24.85
2019-03-29T13:45:33.164Z,24.83
2019-03-29T13:46:32.988Z,25.02
2019-03-29T13:47:33.086Z,24.91
2019-03-29T13:48:32.930Z,24.76
2019-03-29T13:49:32.935Z,24.60
2019-03-29T13:50:33.110Z,24.35
2019-03-29T13:51:32.865Z,23.95
2019-03-29T13:52:32.895Z,23.42
2019-03-29T13:53:32.850Z,23.35
2019-03-29T13:54:32.950Z,23.26
2019-03-29T13:55:32.850Z,23.08
2019-03-29T13:56:32.835Z,23.14
2019-03-29T13:57:32.805Z,23.04
2019-03-29T13:58:32.784Z,22.87
2019-03-29T13:59:33.111Z,22.62
2019-03-29T14:00:32.786Z,22.54
2019-03-29T14:01:32.850Z,22.44
2019-03-29T14:02:32.737Z,22.20
2019-03-29T14:03:32.738Z,22.02
2019-03-29T14:04:32.734Z,22.01
2019-03-29T14:05:32.723Z,22.04
2019-03-29T14:06:32.731Z,22.01
2019-03-29T14:07:32.702Z,22.07
2019-03-29T14:08:32.727Z,22.22
2019-03-29T14:09:32.783Z,22.27
2019-03-29T14:10:32.693Z,22.31
2019-03-29T14:11:32.703Z,22.23
2019-03-29T14:12:33.068Z,22.29
2019-03-29T14:13:32.894Z,22.29
2019-03-29T14:14:38.380Z,22.28
2019-03-29T14:15:33.632Z,22.02
2019-03-29T14:16:32.599Z,21.81
2019-03-29T14:17:32.630Z,21.67
2019-03-29T14:18:32.628Z,21.67
2019-03-29T14:19:32.591Z,21.67
2019-03-29T14:20:32.655Z,21.66
2019-03-29T14:21:32.543Z,21.71
2019-03-29T14:22:32.594Z,21.74
2019-03-29T14:23:32.547Z,21.60
2019-03-29T14:24:32.516Z,21.44
2019-03-29T14:25:32.529Z,21.41
2019-03-29T14:26:32.501Z,21.41
2019-03-29T14:27:32.479Z,21.34
2019-03-29T14:28:32.490Z,21.35
2019-03-29T14:29:33.586Z,21.36
2019-03-29T14:30:32.495Z,21.39
2019-03-29T14:31:32.576Z,21.29
2019-03-29T14:32:32.429Z,21.29
2019-03-29T14:33:32.607Z,21.35
2019-03-29T14:34:32.410Z,21.41
2019-03-29T14:35:32.438Z,21.34
2019-03-29T14:36:32.409Z,21.39
2019-03-29T14:37:32.386Z,21.41
2019-03-29T14:38:32.356Z,21.44
2019-03-29T14:39:32.393Z,21.34
2019-03-29T14:40:32.428Z,21.44
2019-03-29T14:41:32.338Z,21.30
2019-03-29T14:42:32.320Z,21.26
2019-03-29T14:43:32.308Z,21.24
2019-03-29T14:44:32.316Z,21.21
2019-03-29T14:45:32.385Z,21.09
2019-03-29T14:46:32.350Z,21.13
2019-03-29T14:47:41.268Z,21.11
2019-03-29T14:48:33.273Z,21.13
2019-03-29T14:49:32.253Z,21.16
2019-03-29T14:50:35.614Z,21.06
2019-03-29T14:51:32.225Z,21.09
2019-03-29T14:52:32.235Z,21.06
2019-03-29T14:53:32.233Z,21.06
2019-03-29T14:54:32.200Z,21.02
2019-03-29T14:55:32.211Z,21.04
2019-03-29T14:56:32.630Z,21.02
2019-03-29T14:57:32.184Z,20.98
2019-03-29T14:58:32.154Z,20.84
2019-03-29T14:59:32.166Z,20.76
2019-03-29T15:00:32.162Z,20.83
2019-03-29T15:01:32.192Z,20.79
2019-03-29T15:02:32.182Z,20.80
2019-03-29T15:03:32.181Z,20.79
2019-03-29T15:04:32.087Z,20.83
2019-03-29T15:05:32.092Z,20.77
2019-03-29T15:06:32.073Z,20.74
2019-03-29T15:07:32.072Z,20.79
2019-03-29T15:08:32.157Z,20.74
2019-03-29T15:09:32.650Z,20.68
2019-03-29T15:10:32.028Z,20.59
2019-03-29T15:11:32.035Z,20.49
2019-03-29T15:12:32.036Z,20.64
2019-03-29T15:13:32.022Z,20.54
2019-03-29T15:14:32.038Z,20.51
2019-03-29T15:15:31.996Z,20.43
2019-03-29T15:16:31.966Z,20.51
2019-03-29T15:17:31.981Z,20.47
2019-03-29T15:18:31.945Z,20.50
2019-03-29T15:19:31.946Z,20.49
2019-03-29T15:20:31.961Z,20.51
2019-03-29T15:21:31.905Z,20.56
2019-03-29T15:22:33.230Z,20.53
2019-03-29T15:23:31.997Z,20.50
2019-03-29T15:24:31.881Z,20.49
2019-03-29T15:25:31.907Z,20.51
2019-03-29T15:26:31.866Z,20.54
2019-03-29T15:27:31.847Z,20.66
2019-03-29T15:28:31.855Z,20.68
2019-03-29T15:29:31.845Z,20.74
2019-03-29T15:30:31.843Z,20.76
2019-03-29T15:31:31.872Z,20.83
2019-03-29T15:32:31.803Z,20.80
2019-03-29T15:33:31.822Z,20.86
2019-03-29T15:34:31.783Z,20.83
2019-03-29T15:35:31.765Z,20.83
2019-03-29T15:36:31.773Z,20.65
2019-03-29T15:37:31.741Z,20.65
2019-03-29T15:38:31.765Z,20.56
2019-03-29T15:39:31.745Z,20.54
2019-03-29T15:40:31.735Z,20.59
2019-03-29T15:41:31.715Z,20.56
2019-03-29T15:42:31.688Z,20.56
2019-03-29T15:43:31.722Z,20.58
2019-03-29T15:44:31.668Z,20.68
2019-03-29T15:45:31.659Z,20.65
2019-03-29T15:46:31.653Z,20.68
2019-03-29T15:47:31.717Z,20.65
2019-03-29T15:48:31.648Z,20.62
2019-03-29T15:49:31.675Z,20.56
2019-03-29T15:50:31.609Z,20.59
2019-03-29T15:51:32.619Z,20.50
2019-03-29T15:52:31.581Z,20.54
2019-03-29T15:53:31.604Z,20.47
2019-03-29T15:54:33.116Z,20.50
2019-03-29T15:55:31.552Z,20.47
2019-03-29T15:56:31.545Z,20.41
2019-03-29T15:57:31.569Z,20.42
2019-03-29T15:58:31.525Z,20.54
2019-03-29T15:59:31.529Z,20.59
2019-03-29T16:00:31.503Z,20.61
2019-03-29T16:01:31.510Z,20.56
2019-03-29T16:02:31.600Z,20.68
2019-03-29T16:03:31.477Z,20.64
2019-03-29T16:04:31.508Z,20.65
2019-03-29T16:05:31.447Z,20.65
2019-03-29T16:06:31.452Z,20.65
2019-03-29T16:07:34.732Z,20.65
2019-03-29T16:08:31.484Z,20.65
2019-03-29T16:09:31.407Z,20.65
2019-03-29T16:10:31.406Z,20.61
2019-03-29T16:11:31.415Z,20.54
2019-03-29T16:12:31.419Z,20.58
2019-03-29T16:13:31.430Z,20.62
2019-03-29T16:14:31.353Z,20.58
2019-03-29T16:15:35.171Z,20.66
2019-03-29T16:16:32.337Z,20.64
2019-03-29T16:17:31.343Z,20.56
2019-03-29T16:18:31.356Z,20.50
2019-03-29T16:19:31.345Z,20.49
2019-03-29T16:20:31.303Z,20.49
2019-03-29T16:21:31.298Z,20.42
2019-03-29T16:22:31.281Z,20.51
2019-03-29T16:23:31.261Z,20.47
2019-03-29T16:24:31.284Z,20.54
2019-03-29T16:25:31.238Z,20.47
2019-03-29T16:26:31.229Z,20.50
2019-03-29T16:27:31.220Z,20.50
2019-03-29T16:28:31.211Z,20.54
2019-03-29T16:29:31.239Z,20.47
2019-03-29T16:30:31.184Z,20.49
2019-03-29T16:31:31.174Z,20.64
2019-03-29T16:32:31.169Z,20.59
2019-03-29T16:33:31.157Z,20.54
2019-03-29T16:34:31.188Z,20.64
2019-03-29T16:35:31.149Z,20.61
2019-03-29T16:36:31.144Z,20.59
2019-03-29T16:37:31.146Z,20.58
2019-03-29T16:38:31.194Z,20.62
2019-03-29T16:39:31.112Z,20.59
2019-03-29T16:40:31.314Z,20.58
2019-03-29T16:41:31.111Z,20.51
2019-03-29T16:42:31.154Z,20.50
2019-03-29T16:43:31.076Z,20.46
2019-03-29T16:44:31.058Z,20.50
2019-03-29T16:45:31.029Z,20.35
2019-03-29T16:46:31.019Z,20.47
2019-03-29T16:47:31.055Z,20.43
2019-03-29T16:48:31.003Z,20.56
2019-03-29T16:49:30.993Z,20.56
2019-03-29T16:50:30.975Z,20.59
2019-03-29T16:51:31.009Z,20.51
2019-03-29T16:52:30.967Z,20.56
2019-03-29T16:53:30.945Z,20.38
2019-03-29T16:54:30.941Z,20.33
2019-03-29T16:55:30.945Z,20.33
2019-03-29T16:56:30.911Z,20.16
2019-03-29T16:57:30.902Z,20.24
2019-03-29T16:58:30.943Z,20.28
2019-03-29T16:59:30.887Z,20.30
2019-03-29T17:00:30.908Z,20.34
2019-03-29T17:01:30.872Z,20.33
2019-03-29T17:02:30.866Z,20.38
2019-03-29T17:03:30.853Z,20.42
2019-03-29T17:04:30.828Z,20.43
2019-03-29T17:05:30.953Z,20.28
2019-03-29T17:06:30.833Z,20.28
2019-03-29T17:07:30.824Z,20.30
2019-03-29T17:08:30.826Z,20.25
2019-03-29T17:09:30.774Z,20.12
2019-03-29T17:10:30.782Z,20.06
2019-03-29T17:11:31.032Z,20.05
2019-03-29T17:12:30.751Z,20.02
2019-03-29T17:13:30.727Z,19.98
2019-03-29T17:14:30.753Z,20.00
2019-03-29T17:15:30.794Z,19.87
2019-03-29T17:16:30.939Z,19.93
2019-03-29T17:17:31.053Z,19.86
2019-03-29T17:18:30.768Z,19.88
2019-03-29T17:19:30.708Z,19.75
2019-03-29T17:20:30.668Z,19.86
2019-03-29T17:21:30.654Z,19.76
2019-03-29T17:22:30.678Z,19.63
2019-03-29T17:23:30.629Z,19.50
2019-03-29T17:24:30.614Z,19.47
2019-03-29T17:25:30.634Z,19.43
2019-03-29T17:26:30.598Z,19.35
2019-03-29T17:27:30.664Z,19.33
2019-03-29T17:28:30.595Z,19.25
2019-03-29T17:29:30.571Z,19.18
2019-03-29T17:30:30.559Z,19.18
2019-03-29T17:31:30.541Z,19.21
2019-03-29T17:32:30.574Z,19.20
2019-03-29T17:33:30.529Z,19.17
2019-03-29T17:34:30.575Z,19.18
2019-03-29T17:35:30.615Z,19.15
2019-03-29T17:36:30.489Z,19.05
2019-03-29T17:37:30.712Z,18.99
2019-03-29T17:38:30.465Z,18.87
2019-03-29T17:39:30.456Z,18.86
2019-03-29T17:40:30.445Z,18.82
2019-03-29T17:41:30.434Z,18.68
2019-03-29T17:42:30.459Z,18.67
2019-03-29T17:43:30.416Z,18.57
2019-03-29T17:44:30.443Z,18.47
2019-03-29T17:45:31.487Z,18.49
2019-03-29T17:46:30.547Z,18.46
2019-03-29T17:47:30.403Z,18.36
2019-03-29T17:48:30.355Z,18.36
2019-03-29T17:49:30.406Z,18.33
2019-03-29T17:50:30.340Z,18.24
2019-03-29T17:51:30.344Z,18.25
2019-03-29T17:52:31.046Z,18.24
2019-03-29T17:53:31.070Z,18.18
2019-03-29T17:54:30.337Z,18.09
2019-03-29T17:55:31.764Z,18.13
2019-03-29T17:56:30.269Z,17.99
2019-03-29T17:57:30.290Z,18.04
2019-03-29T17:58:30.245Z,17.94
2019-03-29T17:59:30.260Z,17.97
2019-03-29T18:00:30.261Z,17.92
2019-03-29T18:01:30.235Z,17.84
2019-03-29T18:02:30.244Z,17.73
2019-03-29T18:03:30.197Z,17.71
2019-03-29T18:04:30.184Z,17.74
2019-03-29T18:05:30.199Z,17.64
2019-03-29T18:06:30.171Z,17.53
2019-03-29T18:07:30.196Z,17.55
2019-03-29T18:08:32.118Z,17.47
2019-03-29T18:09:31.183Z,17.44
2019-03-29T18:10:30.121Z,17.47
2019-03-29T18:11:30.169Z,17.47
2019-03-29T18:12:30.175Z,17.48
2019-03-29T18:13:30.094Z,17.33
2019-03-29T18:14:30.087Z,17.25
2019-03-29T18:15:32.052Z,17.26
2019-03-29T18:16:31.166Z,17.14
2019-03-29T18:17:30.110Z,17.20
2019-03-29T18:18:30.039Z,17.20
2019-03-29T18:19:30.040Z,17.10
2019-03-29T18:20:30.045Z,17.13
2019-03-29T18:21:30.021Z,17.06
2019-03-29T18:22:30.024Z,17.00
2019-03-29T18:23:30.058Z,16.95
2019-03-29T18:24:29.991Z,16.98
2019-03-29T18:25:29.966Z,16.96
2019-03-29T18:26:30.419Z,16.81
2019-03-29T18:27:29.943Z,16.86
2019-03-29T18:28:29.966Z,16.81
2019-03-29T18:29:29.963Z,16.75
2019-03-29T18:30:29.950Z,16.77
2019-03-29T18:31:29.905Z,16.71
2019-03-29T18:32:29.897Z,16.74
2019-03-29T18:33:29.893Z,16.59
2019-03-29T18:34:29.899Z,16.62
2019-03-29T18:35:29.926Z,16.63
2019-03-29T18:36:30.098Z,16.53
2019-03-29T18:37:29.839Z,16.59
2019-03-29T18:38:29.848Z,16.58
2019-03-29T18:39:29.818Z,16.59
2019-03-29T18:40:29.857Z,16.52
2019-03-29T18:41:29.832Z,16.48
2019-03-29T18:42:29.842Z,16.49
2019-03-29T18:43:29.787Z,16.49
2019-03-29T18:44:29.780Z,16.52
2019-03-29T18:45:29.897Z,16.45
2019-03-29T18:46:43.703Z,16.40
2019-03-29T18:47:30.927Z,16.38
2019-03-29T18:48:29.726Z,16.30
2019-03-29T18:49:29.718Z,16.31
2019-03-29T18:50:29.708Z,16.34
2019-03-29T18:51:29.697Z,16.23
2019-03-29T18:52:29.695Z,16.23
2019-03-29T18:53:29.755Z,16.20
2019-03-29T18:54:29.737Z,16.23
2019-03-29T18:55:29.652Z,16.14
2019-03-29T18:56:29.641Z,16.20
2019-03-29T18:57:29.655Z,16.16
2019-03-29T18:58:29.632Z,16.20
2019-03-29T18:59:29.625Z,16.12
